sensor_id;sensor_type;location;lat;lon;timestamp;temperature;humidity
19555;DHT22;9924;50.828;6.440;2023-05-21T00:00:52;12.30;99.90
19555;DHT22;9924;50.828;6.440;2023-05-21T00:03:37;12.30;99.90
19555;DHT22;9924;50.828;6.440;2023-05-21T00:06:25;12.30;99.90
19555;DHT22;9924;50.828;6.440;2023-05-21T00:09:09;12.30;99.90
19555;DHT22;9924;50.828;6.440;2023-05-21T00:11:56;12.30;99.90
19555;DHT22;9924;50.828;6.440;2023-05-21T00:14:40;12.30;99.90
19555;DHT22;9924;50.828;6.440;2023-05-21T00:17:25;12.30;99.90
19555;DHT22;9924;50.828;6.440;2023-05-21T00:20:09;12.20;99.90
19555;DHT22;9924;50.828;6.440;2023-05-21T00:22:54;12.10;99.90
19555;DHT22;9924;50.828;6.440;2023-05-21T00:25:38;12.10;99.90
19555;DHT22;9924;50.828;6.440;2023-05-21T00:28:23;12.00;99.90
19555;DHT22;9924;50.828;6.440;2023-05-21T00:31:07;11.90;99.90
19555;DHT22;9924;50.828;6.440;2023-05-21T00:33:52;11.90;99.90
19555;DHT22;9924;50.828;6.440;2023-05-21T00:36:36;11.90;99.90
19555;DHT22;9924;50.828;6.440;2023-05-21T00:39:22;11.80;99.90
19555;DHT22;9924;50.828;6.440;2023-05-21T00:42:06;11.80;99.90
19555;DHT22;9924;50.828;6.440;2023-05-21T00:44:51;11.80;99.90
19555;DHT22;9924;50.828;6.440;2023-05-21T00:47:37;11.80;99.90
19555;DHT22;9924;50.828;6.440;2023-05-21T00:50:22;11.80;99.90
19555;DHT22;9924;50.828;6.440;2023-05-21T00:53:07;11.90;99.90
19555;DHT22;9924;50.828;6.440;2023-05-21T00:55:52;11.90;99.90
19555;DHT22;9924;50.828;6.440;2023-05-21T00:58:38;12.00;99.90
19555;DHT22;9924;50.828;6.440;2023-05-21T01:01:23;12.00;99.90
19555;DHT22;9924;50.828;6.440;2023-05-21T01:04:16;12.10;99.90
19555;DHT22;9924;50.828;6.440;2023-05-21T01:07:03;12.10;99.90
19555;DHT22;9924;50.828;6.440;2023-05-21T01:09:49;12.10;99.90
19555;DHT22;9924;50.828;6.440;2023-05-21T01:12:34;12.10;99.90
19555;DHT22;9924;50.828;6.440;2023-05-21T01:15:21;12.10;99.90
19555;DHT22;9924;50.828;6.440;2023-05-21T01:18:05;12.10;99.90
19555;DHT22;9924;50.828;6.440;2023-05-21T01:20:50;12.10;99.90
19555;DHT22;9924;50.828;6.440;2023-05-21T01:23:35;12.10;99.90
19555;DHT22;9924;50.828;6.440;2023-05-21T01:26:20;12.10;99.90
19555;DHT22;9924;50.828;6.440;2023-05-21T01:29:05;12.10;99.90
19555;DHT22;9924;50.828;6.440;2023-05-21T01:35:12;12.20;99.90
19555;DHT22;9924;50.828;6.440;2023-05-21T01:38:19;12.30;99.90
19555;DHT22;9924;50.828;6.440;2023-05-21T01:41:13;12.30;99.90
19555;DHT22;9924;50.828;6.440;2023-05-21T01:44:01;12.30;99.90
19555;DHT22;9924;50.828;6.440;2023-05-21T01:46:46;12.40;99.90
19555;DHT22;9924;50.828;6.440;2023-05-21T01:49:32;12.40;99.90
19555;DHT22;9924;50.828;6.440;2023-05-21T01:52:17;12.40;99.90
19555;DHT22;9924;50.828;6.440;2023-05-21T01:55:02;12.40;99.90
19555;DHT22;9924;50.828;6.440;2023-05-21T01:57:46;12.50;99.90
19555;DHT22;9924;50.828;6.440;2023-05-21T02:00:31;12.50;99.90
19555;DHT22;9924;50.828;6.440;2023-05-21T02:03:16;12.50;99.90
19555;DHT22;9924;50.828;6.440;2023-05-21T02:06:01;12.50;99.90
19555;DHT22;9924;50.828;6.440;2023-05-21T02:08:45;12.50;99.90
19555;DHT22;9924;50.828;6.440;2023-05-21T02:11:31;12.50;99.90
19555;DHT22;9924;50.828;6.440;2023-05-21T02:14:15;12.50;99.90
19555;DHT22;9924;50.828;6.440;2023-05-21T02:17:00;12.50;99.90
19555;DHT22;9924;50.828;6.440;2023-05-21T02:19:44;12.50;99.90
19555;DHT22;9924;50.828;6.440;2023-05-21T02:22:29;12.50;99.90
19555;DHT22;9924;50.828;6.440;2023-05-21T02:25:15;12.40;99.90
19555;DHT22;9924;50.828;6.440;2023-05-21T02:27:59;12.50;99.90
19555;DHT22;9924;50.828;6.440;2023-05-21T02:30:44;12.40;99.90
19555;DHT22;9924;50.828;6.440;2023-05-21T02:33:29;12.40;99.90
19555;DHT22;9924;50.828;6.440;2023-05-21T02:36:13;12.40;99.90
19555;DHT22;9924;50.828;6.440;2023-05-21T02:38:58;12.40;99.90
19555;DHT22;9924;50.828;6.440;2023-05-21T02:41:42;12.40;99.90
19555;DHT22;9924;50.828;6.440;2023-05-21T02:44:26;12.40;99.90
19555;DHT22;9924;50.828;6.440;2023-05-21T02:47:11;12.50;99.90
19555;DHT22;9924;50.828;6.440;2023-05-21T02:49:58;12.40;99.90
19555;DHT22;9924;50.828;6.440;2023-05-21T02:52:43;12.40;99.90
19555;DHT22;9924;50.828;6.440;2023-05-21T02:55:27;12.40;99.90
19555;DHT22;9924;50.828;6.440;2023-05-21T02:58:12;12.40;99.90
19555;DHT22;9924;50.828;6.440;2023-05-21T03:00:58;12.30;99.90
19555;DHT22;9924;50.828;6.440;2023-05-21T03:03:42;12.30;99.90
19555;DHT22;9924;50.828;6.440;2023-05-21T03:06:26;12.20;99.90
19555;DHT22;9924;50.828;6.440;2023-05-21T03:09:11;12.20;99.90
19555;DHT22;9924;50.828;6.440;2023-05-21T03:11:56;12.30;99.90
19555;DHT22;9924;50.828;6.440;2023-05-21T03:14:40;12.30;99.90
19555;DHT22;9924;50.828;6.440;2023-05-21T03:17:29;12.30;99.90
19555;DHT22;9924;50.828;6.440;2023-05-21T03:20:14;12.30;99.90
19555;DHT22;9924;50.828;6.440;2023-05-21T03:23:01;12.30;99.90
19555;DHT22;9924;50.828;6.440;2023-05-21T03:25:47;12.30;99.90
19555;DHT22;9924;50.828;6.440;2023-05-21T03:28:32;12.30;99.90
19555;DHT22;9924;50.828;6.440;2023-05-21T03:31:16;12.40;99.90
19555;DHT22;9924;50.828;6.440;2023-05-21T03:34:00;12.30;99.90
19555;DHT22;9924;50.828;6.440;2023-05-21T03:36:45;12.30;99.90
19555;DHT22;9924;50.828;6.440;2023-05-21T03:39:29;12.20;99.90
19555;DHT22;9924;50.828;6.440;2023-05-21T03:42:14;12.20;99.90
19555;DHT22;9924;50.828;6.440;2023-05-21T03:44:58;12.20;99.90
19555;DHT22;9924;50.828;6.440;2023-05-21T03:47:43;12.10;99.90
19555;DHT22;9924;50.828;6.440;2023-05-21T03:50:27;12.00;99.90
19555;DHT22;9924;50.828;6.440;2023-05-21T03:53:11;12.00;99.90
19555;DHT22;9924;50.828;6.440;2023-05-21T03:55:56;12.00;99.90
19555;DHT22;9924;50.828;6.440;2023-05-21T03:58:41;12.00;99.90
19555;DHT22;9924;50.828;6.440;2023-05-21T04:01:26;12.00;99.90
19555;DHT22;9924;50.828;6.440;2023-05-21T04:04:11;12.00;99.90
19555;DHT22;9924;50.828;6.440;2023-05-21T04:06:55;12.00;99.90
19555;DHT22;9924;50.828;6.440;2023-05-21T04:09:40;12.00;99.90
19555;DHT22;9924;50.828;6.440;2023-05-21T04:12:24;12.10;99.90
19555;DHT22;9924;50.828;6.440;2023-05-21T04:15:09;12.10;99.90
19555;DHT22;9924;50.828;6.440;2023-05-21T04:17:54;12.10;99.90
19555;DHT22;9924;50.828;6.440;2023-05-21T04:20:38;12.20;99.90
19555;DHT22;9924;50.828;6.440;2023-05-21T04:23:23;12.20;99.90
19555;DHT22;9924;50.828;6.440;2023-05-21T04:26:08;12.20;99.90
19555;DHT22;9924;50.828;6.440;2023-05-21T04:28:52;12.30;99.90
19555;DHT22;9924;50.828;6.440;2023-05-21T04:31:38;12.30;99.90
19555;DHT22;9924;50.828;6.440;2023-05-21T04:34:22;12.40;99.90
19555;DHT22;9924;50.828;6.440;2023-05-21T04:37:07;12.50;99.90
19555;DHT22;9924;50.828;6.440;2023-05-21T04:39:55;12.50;99.90
19555;DHT22;9924;50.828;6.440;2023-05-21T04:42:39;12.50;99.90
19555;DHT22;9924;50.828;6.440;2023-05-21T04:45:24;12.60;99.90
19555;DHT22;9924;50.828;6.440;2023-05-21T04:48:08;12.50;99.90
19555;DHT22;9924;50.828;6.440;2023-05-21T04:50:53;12.60;99.90
19555;DHT22;9924;50.828;6.440;2023-05-21T04:53:37;12.70;99.90
19555;DHT22;9924;50.828;6.440;2023-05-21T04:56:21;12.70;99.90
19555;DHT22;9924;50.828;6.440;2023-05-21T04:59:06;12.80;99.90
19555;DHT22;9924;50.828;6.440;2023-05-21T05:01:51;12.80;99.90
19555;DHT22;9924;50.828;6.440;2023-05-21T05:04:36;12.90;99.90
19555;DHT22;9924;50.828;6.440;2023-05-21T05:07:20;12.90;99.90
19555;DHT22;9924;50.828;6.440;2023-05-21T05:10:05;13.00;99.90
19555;DHT22;9924;50.828;6.440;2023-05-21T05:12:49;13.00;99.90
19555;DHT22;9924;50.828;6.440;2023-05-21T05:15:34;13.10;99.90
19555;DHT22;9924;50.828;6.440;2023-05-21T05:18:19;13.20;99.90
19555;DHT22;9924;50.828;6.440;2023-05-21T05:21:04;13.20;99.90
19555;DHT22;9924;50.828;6.440;2023-05-21T05:23:48;13.30;99.90
19555;DHT22;9924;50.828;6.440;2023-05-21T05:26:33;13.20;99.90
19555;DHT22;9924;50.828;6.440;2023-05-21T05:29:17;13.20;99.90
19555;DHT22;9924;50.828;6.440;2023-05-21T05:32:03;13.20;99.90
19555;DHT22;9924;50.828;6.440;2023-05-21T05:34:47;13.20;99.90
19555;DHT22;9924;50.828;6.440;2023-05-21T05:37:32;13.30;99.90
19555;DHT22;9924;50.828;6.440;2023-05-21T05:40:16;13.50;99.90
19555;DHT22;9924;50.828;6.440;2023-05-21T05:43:01;13.60;99.90
19555;DHT22;9924;50.828;6.440;2023-05-21T05:45:46;13.70;99.90
19555;DHT22;9924;50.828;6.440;2023-05-21T05:48:30;13.90;99.90
19555;DHT22;9924;50.828;6.440;2023-05-21T05:51:15;14.10;99.90
19555;DHT22;9924;50.828;6.440;2023-05-21T05:54:00;14.30;99.90
19555;DHT22;9924;50.828;6.440;2023-05-21T05:56:45;14.40;99.90
19555;DHT22;9924;50.828;6.440;2023-05-21T05:59:29;14.40;99.90
19555;DHT22;9924;50.828;6.440;2023-05-21T06:02:14;14.40;99.90
19555;DHT22;9924;50.828;6.440;2023-05-21T06:04:59;14.40;99.90
19555;DHT22;9924;50.828;6.440;2023-05-21T06:07:43;14.50;99.90
19555;DHT22;9924;50.828;6.440;2023-05-21T06:10:28;14.60;99.90
19555;DHT22;9924;50.828;6.440;2023-05-21T06:13:12;14.50;99.90
19555;DHT22;9924;50.828;6.440;2023-05-21T06:15:57;14.50;99.90
19555;DHT22;9924;50.828;6.440;2023-05-21T06:18:41;14.60;99.90
19555;DHT22;9924;50.828;6.440;2023-05-21T06:21:26;14.60;99.90
19555;DHT22;9924;50.828;6.440;2023-05-21T06:24:11;14.70;99.90
19555;DHT22;9924;50.828;6.440;2023-05-21T06:26:55;14.50;99.90
19555;DHT22;9924;50.828;6.440;2023-05-21T06:29:39;14.50;99.90
19555;DHT22;9924;50.828;6.440;2023-05-21T06:32:24;14.60;99.90
19555;DHT22;9924;50.828;6.440;2023-05-21T06:35:09;14.80;99.90
19555;DHT22;9924;50.828;6.440;2023-05-21T06:37:53;15.20;99.90
19555;DHT22;9924;50.828;6.440;2023-05-21T06:40:37;15.40;99.90
19555;DHT22;9924;50.828;6.440;2023-05-21T06:43:22;15.60;99.90
19555;DHT22;9924;50.828;6.440;2023-05-21T06:46:06;15.80;99.90
19555;DHT22;9924;50.828;6.440;2023-05-21T06:48:51;15.80;99.90
19555;DHT22;9924;50.828;6.440;2023-05-21T06:51:34;15.80;99.90
19555;DHT22;9924;50.828;6.440;2023-05-21T06:54:19;15.70;99.90
19555;DHT22;9924;50.828;6.440;2023-05-21T06:57:04;15.80;99.90
19555;DHT22;9924;50.828;6.440;2023-05-21T06:59:49;15.80;99.90
19555;DHT22;9924;50.828;6.440;2023-05-21T07:02:33;15.60;99.90
19555;DHT22;9924;50.828;6.440;2023-05-21T07:05:18;15.70;99.90
19555;DHT22;9924;50.828;6.440;2023-05-21T07:08:02;15.80;99.90
19555;DHT22;9924;50.828;6.440;2023-05-21T07:10:48;15.70;99.90
19555;DHT22;9924;50.828;6.440;2023-05-21T07:13:34;15.70;99.90
19555;DHT22;9924;50.828;6.440;2023-05-21T07:16:19;15.70;99.90
19555;DHT22;9924;50.828;6.440;2023-05-21T07:19:03;15.90;99.90
19555;DHT22;9924;50.828;6.440;2023-05-21T07:21:48;16.10;99.90
19555;DHT22;9924;50.828;6.440;2023-05-21T07:24:32;16.20;99.90
19555;DHT22;9924;50.828;6.440;2023-05-21T07:27:16;16.50;99.90
19555;DHT22;9924;50.828;6.440;2023-05-21T07:30:01;17.00;99.90
19555;DHT22;9924;50.828;6.440;2023-05-21T07:32:45;17.00;99.90
19555;DHT22;9924;50.828;6.440;2023-05-21T07:35:29;17.20;99.90
19555;DHT22;9924;50.828;6.440;2023-05-21T07:38:14;17.50;99.90
19555;DHT22;9924;50.828;6.440;2023-05-21T07:40:59;17.40;99.90
19555;DHT22;9924;50.828;6.440;2023-05-21T07:43:43;17.60;99.90
19555;DHT22;9924;50.828;6.440;2023-05-21T07:46:27;17.60;99.90
19555;DHT22;9924;50.828;6.440;2023-05-21T07:49:12;17.90;99.90
19555;DHT22;9924;50.828;6.440;2023-05-21T07:51:59;18.30;99.90
19555;DHT22;9924;50.828;6.440;2023-05-21T07:54:44;18.20;99.90
19555;DHT22;9924;50.828;6.440;2023-05-21T07:57:28;18.20;99.90
19555;DHT22;9924;50.828;6.440;2023-05-21T08:00:13;18.50;99.90
19555;DHT22;9924;50.828;6.440;2023-05-21T08:02:57;18.60;99.90
19555;DHT22;9924;50.828;6.440;2023-05-21T08:05:43;18.80;99.90
19555;DHT22;9924;50.828;6.440;2023-05-21T08:08:36;18.80;99.90
19555;DHT22;9924;50.828;6.440;2023-05-21T08:11:21;19.20;99.90
19555;DHT22;9924;50.828;6.440;2023-05-21T08:14:06;19.00;99.90
19555;DHT22;9924;50.828;6.440;2023-05-21T08:16:51;19.00;99.90
19555;DHT22;9924;50.828;6.440;2023-05-21T08:19:34;18.80;99.90
19555;DHT22;9924;50.828;6.440;2023-05-21T08:22:19;19.00;99.90
19555;DHT22;9924;50.828;6.440;2023-05-21T08:25:03;19.20;99.90
19555;DHT22;9924;50.828;6.440;2023-05-21T08:27:48;19.50;99.90
19555;DHT22;9924;50.828;6.440;2023-05-21T08:30:32;20.00;99.90
19555;DHT22;9924;50.828;6.440;2023-05-21T08:33:17;20.50;99.90
19555;DHT22;9924;50.828;6.440;2023-05-21T08:36:03;20.50;99.90
19555;DHT22;9924;50.828;6.440;2023-05-21T08:38:48;20.80;99.90
19555;DHT22;9924;50.828;6.440;2023-05-21T08:41:34;20.70;99.90
19555;DHT22;9924;50.828;6.440;2023-05-21T08:44:20;21.00;99.90
19555;DHT22;9924;50.828;6.440;2023-05-21T08:47:10;20.80;99.90
19555;DHT22;9924;50.828;6.440;2023-05-21T08:49:58;20.60;99.90
19555;DHT22;9924;50.828;6.440;2023-05-21T08:52:42;20.90;99.90
19555;DHT22;9924;50.828;6.440;2023-05-21T08:55:27;21.00;99.90
19555;DHT22;9924;50.828;6.440;2023-05-21T08:58:11;21.30;99.90
19555;DHT22;9924;50.828;6.440;2023-05-21T09:00:57;20.90;99.90
19555;DHT22;9924;50.828;6.440;2023-05-21T09:03:41;20.60;99.90
19555;DHT22;9924;50.828;6.440;2023-05-21T09:06:26;20.40;99.90
19555;DHT22;9924;50.828;6.440;2023-05-21T09:09:24;20.20;99.90
19555;DHT22;9924;50.828;6.440;2023-05-21T09:12:11;20.40;99.90
19555;DHT22;9924;50.828;6.440;2023-05-21T09:14:55;20.60;99.90
19555;DHT22;9924;50.828;6.440;2023-05-21T09:17:42;20.70;99.90
19555;DHT22;9924;50.828;6.440;2023-05-21T09:20:29;20.80;99.90
19555;DHT22;9924;50.828;6.440;2023-05-21T09:23:16;21.00;99.90
19555;DHT22;9924;50.828;6.440;2023-05-21T09:26:10;20.70;99.90
19555;DHT22;9924;50.828;6.440;2023-05-21T09:28:56;20.60;99.90
19555;DHT22;9924;50.828;6.440;2023-05-21T09:31:43;20.80;99.90
19555;DHT22;9924;50.828;6.440;2023-05-21T09:34:30;21.10;99.90
19555;DHT22;9924;50.828;6.440;2023-05-21T09:37:19;21.10;99.90
19555;DHT22;9924;50.828;6.440;2023-05-21T09:40:16;21.20;99.90
19555;DHT22;9924;50.828;6.440;2023-05-21T09:43:01;21.40;99.90
19555;DHT22;9924;50.828;6.440;2023-05-21T09:45:53;21.00;99.90
19555;DHT22;9924;50.828;6.440;2023-05-21T09:48:40;21.40;99.90
19555;DHT22;9924;50.828;6.440;2023-05-21T09:51:26;21.70;99.90
19555;DHT22;9924;50.828;6.440;2023-05-21T09:54:10;21.60;99.90
19555;DHT22;9924;50.828;6.440;2023-05-21T09:56:55;21.90;99.90
19555;DHT22;9924;50.828;6.440;2023-05-21T09:59:40;21.90;99.90
19555;DHT22;9924;50.828;6.440;2023-05-21T10:02:24;22.00;99.90
19555;DHT22;9924;50.828;6.440;2023-05-21T10:05:13;22.00;99.90
19555;DHT22;9924;50.828;6.440;2023-05-21T10:08:00;22.40;99.90
19555;DHT22;9924;50.828;6.440;2023-05-21T10:10:46;22.60;99.90
19555;DHT22;9924;50.828;6.440;2023-05-21T10:13:36;22.60;99.90
19555;DHT22;9924;50.828;6.440;2023-05-21T10:16:23;22.60;99.90
19555;DHT22;9924;50.828;6.440;2023-05-21T10:19:07;22.20;99.90
19555;DHT22;9924;50.828;6.440;2023-05-21T10:21:55;22.20;99.90
19555;DHT22;9924;50.828;6.440;2023-05-21T10:24:40;22.20;99.90
19555;DHT22;9924;50.828;6.440;2023-05-21T10:27:27;22.60;99.90
19555;DHT22;9924;50.828;6.440;2023-05-21T10:30:13;22.80;99.90
19555;DHT22;9924;50.828;6.440;2023-05-21T10:32:58;23.00;99.90
19555;DHT22;9924;50.828;6.440;2023-05-21T10:35:45;22.60;99.90
19555;DHT22;9924;50.828;6.440;2023-05-21T10:38:32;22.30;99.90
19555;DHT22;9924;50.828;6.440;2023-05-21T10:41:18;22.10;99.90
19555;DHT22;9924;50.828;6.440;2023-05-21T11:00:08;23.70;99.90
19555;DHT22;9924;50.828;6.440;2023-05-21T11:02:54;23.90;99.90
19555;DHT22;9924;50.828;6.440;2023-05-21T11:05:53;24.10;99.90
19555;DHT22;9924;50.828;6.440;2023-05-21T11:08:46;24.40;99.90
19555;DHT22;9924;50.828;6.440;2023-05-21T11:11:57;23.80;99.90
19555;DHT22;9924;50.828;6.440;2023-05-21T11:14:55;23.50;99.90
19555;DHT22;9924;50.828;6.440;2023-05-21T11:17:40;23.80;99.90
19555;DHT22;9924;50.828;6.440;2023-05-21T11:20:33;24.20;99.90
19555;DHT22;9924;50.828;6.440;2023-05-21T11:23:19;24.90;99.90
19555;DHT22;9924;50.828;6.440;2023-05-21T11:26:05;24.40;99.90
19555;DHT22;9924;50.828;6.440;2023-05-21T11:31:59;23.30;99.90
19555;DHT22;9924;50.828;6.440;2023-05-21T11:34:49;23.90;99.90
19555;DHT22;9924;50.828;6.440;2023-05-21T11:37:33;24.60;99.90
19555;DHT22;9924;50.828;6.440;2023-05-21T11:40:22;24.60;99.90
19555;DHT22;9924;50.828;6.440;2023-05-21T11:43:08;24.40;99.90
19555;DHT22;9924;50.828;6.440;2023-05-21T11:45:53;25.00;99.90
19555;DHT22;9924;50.828;6.440;2023-05-21T11:48:38;25.00;99.90
19555;DHT22;9924;50.828;6.440;2023-05-21T11:51:25;25.00;99.90
19555;DHT22;9924;50.828;6.440;2023-05-21T11:54:11;25.00;99.90
19555;DHT22;9924;50.828;6.440;2023-05-21T11:56:56;24.90;99.90
19555;DHT22;9924;50.828;6.440;2023-05-21T11:59:41;25.40;99.90
19555;DHT22;9924;50.828;6.440;2023-05-21T12:02:29;25.80;99.90
19555;DHT22;9924;50.828;6.440;2023-05-21T12:05:14;25.60;99.90
19555;DHT22;9924;50.828;6.440;2023-05-21T12:07:58;24.20;99.90
19555;DHT22;9924;50.828;6.440;2023-05-21T12:10:43;23.50;99.90
19555;DHT22;9924;50.828;6.440;2023-05-21T12:13:27;23.10;99.90
19555;DHT22;9924;50.828;6.440;2023-05-21T12:16:13;23.70;99.90
19555;DHT22;9924;50.828;6.440;2023-05-21T12:18:59;25.10;99.90
19555;DHT22;9924;50.828;6.440;2023-05-21T12:21:43;25.10;99.90
19555;DHT22;9924;50.828;6.440;2023-05-21T12:24:29;25.70;99.90
19555;DHT22;9924;50.828;6.440;2023-05-21T12:27:13;25.30;99.90
19555;DHT22;9924;50.828;6.440;2023-05-21T12:29:59;25.50;99.90
19555;DHT22;9924;50.828;6.440;2023-05-21T12:32:44;26.10;99.90
19555;DHT22;9924;50.828;6.440;2023-05-21T12:35:29;26.80;99.90
19555;DHT22;9924;50.828;6.440;2023-05-21T12:38:14;26.50;99.90
19555;DHT22;9924;50.828;6.440;2023-05-21T12:41:03;25.70;99.90
19555;DHT22;9924;50.828;6.440;2023-05-21T12:43:49;25.10;99.90
19555;DHT22;9924;50.828;6.440;2023-05-21T12:46:35;24.60;99.90
19555;DHT22;9924;50.828;6.440;2023-05-21T12:49:33;25.50;99.90
19555;DHT22;9924;50.828;6.440;2023-05-21T12:52:18;26.20;99.90
19555;DHT22;9924;50.828;6.440;2023-05-21T12:55:06;26.30;99.90
19555;DHT22;9924;50.828;6.440;2023-05-21T12:58:02;26.60;99.90
19555;DHT22;9924;50.828;6.440;2023-05-21T13:00:53;26.90;99.90
19555;DHT22;9924;50.828;6.440;2023-05-21T13:03:40;27.90;99.90
19555;DHT22;9924;50.828;6.440;2023-05-21T13:06:26;28.10;99.90
19555;DHT22;9924;50.828;6.440;2023-05-21T13:09:10;28.20;99.90
19555;DHT22;9924;50.828;6.440;2023-05-21T13:11:55;28.40;99.90
19555;DHT22;9924;50.828;6.440;2023-05-21T13:14:39;28.40;99.90
19555;DHT22;9924;50.828;6.440;2023-05-21T13:17:24;28.60;99.90
19555;DHT22;9924;50.828;6.440;2023-05-21T13:22:55;28.40;99.90
19555;DHT22;9924;50.828;6.440;2023-05-21T13:25:39;28.70;99.90
19555;DHT22;9924;50.828;6.440;2023-05-21T13:28:24;28.10;99.90
19555;DHT22;9924;50.828;6.440;2023-05-21T13:31:08;27.90;99.90
19555;DHT22;9924;50.828;6.440;2023-05-21T13:33:55;28.20;99.90
19555;DHT22;9924;50.828;6.440;2023-05-21T13:36:39;28.80;99.90
19555;DHT22;9924;50.828;6.440;2023-05-21T13:39:24;28.40;99.90
19555;DHT22;9924;50.828;6.440;2023-05-21T13:42:10;28.60;99.90
19555;DHT22;9924;50.828;6.440;2023-05-21T13:44:54;27.40;99.90
19555;DHT22;9924;50.828;6.440;2023-05-21T13:47:40;27.60;99.90
19555;DHT22;9924;50.828;6.440;2023-05-21T13:50:25;28.10;99.90
19555;DHT22;9924;50.828;6.440;2023-05-21T13:53:10;28.00;99.90
19555;DHT22;9924;50.828;6.440;2023-05-21T13:55:54;28.40;99.90
19555;DHT22;9924;50.828;6.440;2023-05-21T13:58:39;28.60;99.90
19555;DHT22;9924;50.828;6.440;2023-05-21T14:01:25;28.60;99.90
19555;DHT22;9924;50.828;6.440;2023-05-21T14:04:10;28.50;99.90
19555;DHT22;9924;50.828;6.440;2023-05-21T14:06:55;28.10;99.90
19555;DHT22;9924;50.828;6.440;2023-05-21T14:09:39;27.80;99.90
19555;DHT22;9924;50.828;6.440;2023-05-21T14:12:25;27.70;99.90
19555;DHT22;9924;50.828;6.440;2023-05-21T14:15:10;28.10;99.90
19555;DHT22;9924;50.828;6.440;2023-05-21T14:17:54;28.20;99.90
19555;DHT22;9924;50.828;6.440;2023-05-21T14:20:39;28.30;99.90
19555;DHT22;9924;50.828;6.440;2023-05-21T14:23:24;28.50;99.90
19555;DHT22;9924;50.828;6.440;2023-05-21T14:26:08;28.70;99.90
19555;DHT22;9924;50.828;6.440;2023-05-21T14:28:52;29.00;99.90
19555;DHT22;9924;50.828;6.440;2023-05-21T14:31:37;28.60;99.90
19555;DHT22;9924;50.828;6.440;2023-05-21T14:34:22;28.10;99.90
19555;DHT22;9924;50.828;6.440;2023-05-21T14:37:06;27.50;99.90
19555;DHT22;9924;50.828;6.440;2023-05-21T14:39:51;27.30;99.90
19555;DHT22;9924;50.828;6.440;2023-05-21T14:42:35;27.50;99.90
19555;DHT22;9924;50.828;6.440;2023-05-21T14:45:20;27.70;99.90
19555;DHT22;9924;50.828;6.440;2023-05-21T14:48:05;28.00;99.90
19555;DHT22;9924;50.828;6.440;2023-05-21T14:50:52;28.10;99.90
19555;DHT22;9924;50.828;6.440;2023-05-21T14:53:36;28.40;99.90
19555;DHT22;9924;50.828;6.440;2023-05-21T14:56:21;28.50;99.90
19555;DHT22;9924;50.828;6.440;2023-05-21T14:59:06;28.60;99.90
19555;DHT22;9924;50.828;6.440;2023-05-21T15:01:50;28.90;99.90
19555;DHT22;9924;50.828;6.440;2023-05-21T15:04:35;29.00;99.90
19555;DHT22;9924;50.828;6.440;2023-05-21T15:07:19;29.30;99.90
19555;DHT22;9924;50.828;6.440;2023-05-21T15:10:04;29.40;99.90
19555;DHT22;9924;50.828;6.440;2023-05-21T15:12:49;28.80;99.90
19555;DHT22;9924;50.828;6.440;2023-05-21T15:15:34;28.50;99.90
19555;DHT22;9924;50.828;6.440;2023-05-21T15:18:19;28.60;99.90
19555;DHT22;9924;50.828;6.440;2023-05-21T15:21:04;28.50;99.90
19555;DHT22;9924;50.828;6.440;2023-05-21T15:23:49;28.60;99.90
19555;DHT22;9924;50.828;6.440;2023-05-21T15:26:33;28.40;99.90
19555;DHT22;9924;50.828;6.440;2023-05-21T15:29:18;28.60;99.90
19555;DHT22;9924;50.828;6.440;2023-05-21T15:32:02;28.60;99.90
19555;DHT22;9924;50.828;6.440;2023-05-21T15:34:48;28.60;99.90
19555;DHT22;9924;50.828;6.440;2023-05-21T15:37:33;28.60;99.90
19555;DHT22;9924;50.828;6.440;2023-05-21T15:40:18;28.20;99.90
19555;DHT22;9924;50.828;6.440;2023-05-21T15:43:03;28.10;99.90
19555;DHT22;9924;50.828;6.440;2023-05-21T15:45:51;28.10;99.90
19555;DHT22;9924;50.828;6.440;2023-05-21T15:48:36;28.30;99.90
19555;DHT22;9924;50.828;6.440;2023-05-21T15:51:21;28.60;99.90
19555;DHT22;9924;50.828;6.440;2023-05-21T15:54:05;28.60;99.90
19555;DHT22;9924;50.828;6.440;2023-05-21T15:56:49;28.30;99.90
19555;DHT22;9924;50.828;6.440;2023-05-21T15:59:34;28.00;99.90
19555;DHT22;9924;50.828;6.440;2023-05-21T16:02:18;28.20;99.90
19555;DHT22;9924;50.828;6.440;2023-05-21T16:05:03;28.30;99.90
19555;DHT22;9924;50.828;6.440;2023-05-21T16:07:47;28.30;99.90
19555;DHT22;9924;50.828;6.440;2023-05-21T16:13:18;28.20;99.90
19555;DHT22;9924;50.828;6.440;2023-05-21T16:16:03;27.80;99.90
19555;DHT22;9924;50.828;6.440;2023-05-21T16:18:48;27.40;99.90
19555;DHT22;9924;50.828;6.440;2023-05-21T16:21:32;27.10;99.90
19555;DHT22;9924;50.828;6.440;2023-05-21T16:24:17;26.90;99.90
19555;DHT22;9924;50.828;6.440;2023-05-21T16:27:01;26.60;99.90
19555;DHT22;9924;50.828;6.440;2023-05-21T16:29:46;26.50;99.90
19555;DHT22;9924;50.828;6.440;2023-05-21T16:32:30;26.60;99.90
19555;DHT22;9924;50.828;6.440;2023-05-21T16:35:15;26.30;99.90
19555;DHT22;9924;50.828;6.440;2023-05-21T16:37:59;25.90;99.90
19555;DHT22;9924;50.828;6.440;2023-05-21T16:40:44;25.80;99.90
19555;DHT22;9924;50.828;6.440;2023-05-21T16:43:28;25.30;99.90
19555;DHT22;9924;50.828;6.440;2023-05-21T16:46:13;25.10;99.90
19555;DHT22;9924;50.828;6.440;2023-05-21T16:48:57;24.80;99.90
19555;DHT22;9924;50.828;6.440;2023-05-21T16:51:41;24.60;99.90
19555;DHT22;9924;50.828;6.440;2023-05-21T16:57:10;24.10;99.90
19555;DHT22;9924;50.828;6.440;2023-05-21T16:59:54;24.10;99.90
19555;DHT22;9924;50.828;6.440;2023-05-21T17:02:39;23.90;99.90
19555;DHT22;9924;50.828;6.440;2023-05-21T17:05:24;23.90;99.90
19555;DHT22;9924;50.828;6.440;2023-05-21T17:08:09;23.80;99.90
19555;DHT22;9924;50.828;6.440;2023-05-21T17:10:54;23.70;99.90
19555;DHT22;9924;50.828;6.440;2023-05-21T17:13:39;23.60;99.90
19555;DHT22;9924;50.828;6.440;2023-05-21T17:16:23;23.50;99.90
19555;DHT22;9924;50.828;6.440;2023-05-21T17:19:08;23.50;99.90
19555;DHT22;9924;50.828;6.440;2023-05-21T17:21:54;23.60;99.90
19555;DHT22;9924;50.828;6.440;2023-05-21T17:24:39;23.50;99.90
19555;DHT22;9924;50.828;6.440;2023-05-21T17:27:23;23.40;99.90
19555;DHT22;9924;50.828;6.440;2023-05-21T17:30:08;23.40;99.90
19555;DHT22;9924;50.828;6.440;2023-05-21T17:32:53;23.30;99.90
19555;DHT22;9924;50.828;6.440;2023-05-21T17:35:38;23.30;99.90
19555;DHT22;9924;50.828;6.440;2023-05-21T17:38:22;23.20;99.90
19555;DHT22;9924;50.828;6.440;2023-05-21T17:41:07;23.20;99.90
19555;DHT22;9924;50.828;6.440;2023-05-21T17:43:51;23.20;99.90
19555;DHT22;9924;50.828;6.440;2023-05-21T17:46:36;23.10;99.90
19555;DHT22;9924;50.828;6.440;2023-05-21T17:49:20;23.00;99.90
19555;DHT22;9924;50.828;6.440;2023-05-21T17:52:05;22.90;99.90
19555;DHT22;9924;50.828;6.440;2023-05-21T17:54:50;22.80;99.90
19555;DHT22;9924;50.828;6.440;2023-05-21T17:57:34;22.80;99.90
19555;DHT22;9924;50.828;6.440;2023-05-21T18:00:19;22.70;99.90
19555;DHT22;9924;50.828;6.440;2023-05-21T18:03:04;22.80;99.90
19555;DHT22;9924;50.828;6.440;2023-05-21T18:05:48;22.70;99.90
19555;DHT22;9924;50.828;6.440;2023-05-21T18:08:33;22.70;99.90
19555;DHT22;9924;50.828;6.440;2023-05-21T18:11:17;22.70;99.90